Time;durP1;ratioP1;P1;durP2;ratioP2;P2;SDS_P1;SDS_P2;PMS_P1;PMS_P2;Temp;Humidity;BMP_temperature;BMP_pressure;BME280_temperature;BME280_humidity;BME280_pressure;Samples;Min_cycle;Max_cycle;Signal;HPM_P1;HPM_P2
2023/05/19 00:00:30;;;;;;;5.35;2.38;;;;;;;;;;5039878;28;20426;-77
2023/05/19 00:02:56;;;;;;;8.25;2.55;;;;;;;;;;5058851;28;20029;-77
2023/05/19 00:05:21;;;;;;;5.90;2.67;;;;;;;;;;5059767;28;20033;-79
2023/05/19 00:07:50;;;;;;;5.75;2.60;;;;;;;;;;5059321;28;20060;-77
2023/05/19 00:10:16;;;;;;;7.30;2.50;;;;;;;;;;5058468;28;20040;-77
2023/05/19 00:12:45;;;;;;;4.60;2.60;;;;;;;;;;5041463;28;20036;-77
2023/05/19 00:15:10;;;;;;;5.60;2.80;;;;;;;;;;5041823;28;20032;-77
2023/05/19 00:17:37;;;;;;;6.47;2.63;;;;;;;;;;5060760;28;20017;-77
2023/05/19 00:20:06;;;;;;;5.45;2.60;;;;;;;;;;5063716;28;20418;-79
2023/05/19 00:22:31;;;;;;;6.50;2.78;;;;;;;;;;5062339;28;20032;-77
2023/05/19 00:24:56;;;;;;;3.33;2.25;;;;;;;;;;5046059;28;20021;-77
2023/05/19 00:27:22;;;;;;;4.55;2.42;;;;;;;;;;5043115;28;20369;-80
2023/05/19 00:29:47;;;;;;;4.90;2.77;;;;;;;;;;5061470;28;20024;-78
2023/05/19 00:32:12;;;;;;;6.53;2.60;;;;;;;;;;5043773;28;20261;-80
2023/05/19 00:34:37;;;;;;;5.40;2.88;;;;;;;;;;5061849;28;20273;-79
2023/05/19 00:37:03;;;;;;;6.25;2.83;;;;;;;;;;5062938;28;20036;-78
2023/05/19 00:39:28;;;;;;;5.82;2.70;;;;;;;;;;5045733;28;20031;-77
2023/05/19 00:41:53;;;;;;;5.47;2.60;;;;;;;;;;5061526;28;20111;-78
2023/05/19 00:44:18;;;;;;;7.65;2.67;;;;;;;;;;5060559;28;20320;-76
2023/05/19 00:46:44;;;;;;;9.20;2.80;;;;;;;;;;5041473;28;20547;-77
2023/05/19 00:49:09;;;;;;;6.97;2.72;;;;;;;;;;5059877;28;20800;-79
2023/05/19 00:51:34;;;;;;;5.13;2.90;;;;;;;;;;5060677;28;20036;-78
2023/05/19 00:54:00;;;;;;;8.23;2.90;;;;;;;;;;5059794;28;20741;-79
2023/05/19 00:56:25;;;;;;;7.25;2.47;;;;;;;;;;5059845;28;20499;-78
2023/05/19 00:58:51;;;;;;;5.60;2.72;;;;;;;;;;5042402;28;20051;-77
2023/05/19 01:01:16;;;;;;;5.20;2.80;;;;;;;;;;5060443;28;20036;-78
2023/05/19 01:03:42;;;;;;;5.72;2.63;;;;;;;;;;5060377;28;20084;-79
2023/05/19 01:06:08;;;;;;;6.20;2.72;;;;;;;;;;5060007;28;20027;-79
2023/05/19 01:08:35;;;;;;;6.23;2.60;;;;;;;;;;5060103;28;20029;-79
2023/05/19 01:11:00;;;;;;;4.68;2.65;;;;;;;;;;5060728;28;20280;-77
2023/05/19 01:13:26;;;;;;;4.63;2.67;;;;;;;;;;5040595;28;20484;-76
2023/05/19 01:16:12;;;;;;;4.70;2.53;;;;;;;;;;5041428;28;20025;-77
2023/05/19 01:18:41;;;;;;;4.78;2.70;;;;;;;;;;5041285;28;20487;-80
2023/05/19 01:21:43;;;;;;;7.28;2.60;;;;;;;;;;5040738;28;20419;-78
2023/05/19 01:24:11;;;;;;;3.60;2.20;;;;;;;;;;5059356;28;20055;-77
2023/05/19 01:27:08;;;;;;;3.75;2.22;;;;;;;;;;5041713;28;20025;-79
2023/05/19 01:29:46;;;;;;;4.75;2.40;;;;;;;;;;5059447;28;20033;-78
2023/05/19 01:32:14;;;;;;;9.20;2.70;;;;;;;;;;5060048;28;20502;-78
2023/05/19 01:34:45;;;;;;;4.20;2.28;;;;;;;;;;5059867;28;20075;-78
2023/05/19 01:37:12;;;;;;;4.55;2.60;;;;;;;;;;5059436;28;20388;-77
2023/05/19 01:39:39;;;;;;;7.28;2.58;;;;;;;;;;5060998;28;20025;-78
2023/05/19 01:42:05;;;;;;;5.15;2.53;;;;;;;;;;5062363;28;20037;-79
2023/05/19 01:44:31;;;;;;;6.95;2.67;;;;;;;;;;5062506;28;20032;-79
2023/05/19 01:46:57;;;;;;;6.85;2.45;;;;;;;;;;5044280;28;20111;-78
2023/05/19 01:49:22;;;;;;;5.80;2.45;;;;;;;;;;5061455;28;20049;-78
2023/05/19 01:51:48;;;;;;;10.07;2.50;;;;;;;;;;5062031;28;20048;-78
2023/05/19 01:54:13;;;;;;;6.03;2.53;;;;;;;;;;5062457;28;20273;-79
2023/05/19 01:57:07;;;;;;;5.65;2.90;;;;;;;;;;5063692;28;20503;-79
2023/05/19 01:59:50;;;;;;;5.70;2.30;;;;;;;;;;5062529;28;20025;-78
2023/05/19 02:02:33;;;;;;;5.72;2.58;;;;;;;;;;5060973;28;20265;-78
2023/05/19 02:05:07;;;;;;;6.78;2.53;;;;;;;;;;5058725;28;20435;-78
2023/05/19 02:07:50;;;;;;;4.80;2.40;;;;;;;;;;5057958;28;20039;-78
2023/05/19 02:10:29;;;;;;;3.70;2.00;;;;;;;;;;5061151;28;20032;-77
2023/05/19 02:12:59;;;;;;;4.40;2.20;;;;;;;;;;5061823;28;20301;-78
2023/05/19 02:15:28;;;;;;;8.50;2.30;;;;;;;;;;5060413;28;20071;-78
2023/05/19 02:17:58;;;;;;;4.97;2.33;;;;;;;;;;5039804;28;20021;-77
2023/05/19 02:20:24;;;;;;;7.00;2.58;;;;;;;;;;5058148;28;20021;-78
2023/05/19 02:22:49;;;;;;;8.02;2.38;;;;;;;;;;5040331;28;20032;-77
2023/05/19 02:25:14;;;;;;;3.50;2.33;;;;;;;;;;5060367;28;20104;-78
2023/05/19 02:27:40;;;;;;;6.40;2.38;;;;;;;;;;5059847;28;20021;-77
2023/05/19 02:30:07;;;;;;;4.90;2.65;;;;;;;;;;5039725;28;20021;-77
2023/05/19 02:32:33;;;;;;;4.15;2.33;;;;;;;;;;5058818;28;20031;-76
2023/05/19 02:34:58;;;;;;;6.03;2.80;;;;;;;;;;5061003;28;20396;-77
2023/05/19 02:37:24;;;;;;;5.80;2.50;;;;;;;;;;5059258;28;20021;-80
2023/05/19 02:39:49;;;;;;;3.35;2.15;;;;;;;;;;5041942;28;20032;-78
2023/05/19 02:42:17;;;;;;;5.35;2.33;;;;;;;;;;5059937;28;20040;-77
2023/05/19 02:44:42;;;;;;;4.47;2.28;;;;;;;;;;5056463;28;20029;-79
2023/05/19 02:47:07;;;;;;;4.93;2.50;;;;;;;;;;5056040;28;20025;-77
2023/05/19 02:49:34;;;;;;;3.95;2.33;;;;;;;;;;5056206;28;20555;-79
2023/05/19 02:52:01;;;;;;;3.38;2.10;;;;;;;;;;5038900;28;20021;-79
2023/05/19 02:54:26;;;;;;;4.80;2.20;;;;;;;;;;5055495;28;20115;-79
2023/05/19 02:56:51;;;;;;;3.60;2.30;;;;;;;;;;5055605;28;20507;-78
2023/05/19 02:59:16;;;;;;;4.03;2.30;;;;;;;;;;5055372;28;20625;-80
2023/05/19 03:01:41;;;;;;;5.30;2.42;;;;;;;;;;5055673;28;20705;-80
2023/05/19 03:04:07;;;;;;;6.38;2.42;;;;;;;;;;5056401;28;20025;-79
2023/05/19 03:06:32;;;;;;;4.77;2.37;;;;;;;;;;5038519;28;20088;-79
2023/05/19 03:08:57;;;;;;;6.78;2.42;;;;;;;;;;5056623;28;20316;-79
2023/05/19 03:11:23;;;;;;;4.95;2.75;;;;;;;;;;5057420;28;20020;-79
2023/05/19 03:13:48;;;;;;;6.57;2.50;;;;;;;;;;5040064;28;20025;-80
2023/05/19 03:16:14;;;;;;;4.43;2.53;;;;;;;;;;5056801;28;20049;-77
2023/05/19 03:18:40;;;;;;;7.37;2.90;;;;;;;;;;5037560;28;20381;-78
2023/05/19 03:21:05;;;;;;;6.70;2.95;;;;;;;;;;5055499;28;20625;-79
2023/05/19 03:23:31;;;;;;;9.00;2.90;;;;;;;;;;5055746;28;20025;-79
2023/05/19 03:25:56;;;;;;;4.13;2.45;;;;;;;;;;5056277;28;20032;-78
2023/05/19 03:28:26;;;;;;;4.77;2.43;;;;;;;;;;5037411;28;20025;-79
2023/05/19 03:30:51;;;;;;;5.78;2.45;;;;;;;;;;5037716;28;20281;-77
2023/05/19 03:33:16;;;;;;;4.53;2.50;;;;;;;;;;5055807;28;20021;-78
2023/05/19 03:35:43;;;;;;;3.88;2.08;;;;;;;;;;5055823;28;20021;-78
2023/05/19 03:38:08;;;;;;;4.63;2.28;;;;;;;;;;5059610;28;20013;-78
2023/05/19 03:40:33;;;;;;;4.35;2.33;;;;;;;;;;5041184;28;20374;-78
2023/05/19 03:42:59;;;;;;;4.80;2.40;;;;;;;;;;5056721;28;20377;-77
2023/05/19 03:45:25;;;;;;;3.85;2.33;;;;;;;;;;5055849;28;20261;-79
2023/05/19 03:47:50;;;;;;;4.68;2.30;;;;;;;;;;5039143;28;20021;-77
2023/05/19 03:50:15;;;;;;;4.32;2.35;;;;;;;;;;5041777;28;20021;-79
2023/05/19 03:52:44;;;;;;;4.50;2.20;;;;;;;;;;5041686;28;20029;-78
2023/05/19 03:55:09;;;;;;;5.55;2.38;;;;;;;;;;5059920;28;20025;-80
2023/05/19 03:57:35;;;;;;;4.97;2.13;;;;;;;;;;5057484;28;20027;-78
2023/05/19 04:00:00;;;;;;;4.43;2.50;;;;;;;;;;5061032;28;20021;-78
2023/05/19 04:02:25;;;;;;;4.93;2.43;;;;;;;;;;5058557;28;20025;-79
2023/05/19 04:04:50;;;;;;;5.20;2.30;;;;;;;;;;5057709;28;20311;-78
2023/05/19 04:07:15;;;;;;;3.97;2.40;;;;;;;;;;5055571;28;20278;-78
2023/05/19 04:09:41;;;;;;;5.57;2.40;;;;;;;;;;5053579;28;20047;-78
2023/05/19 04:12:07;;;;;;;3.65;2.25;;;;;;;;;;5037620;28;20352;-77
2023/05/19 04:14:32;;;;;;;5.78;2.30;;;;;;;;;;5055160;28;20032;-77
2023/05/19 04:16:57;;;;;;;4.60;2.47;;;;;;;;;;5054784;28;20033;-77
2023/05/19 04:19:22;;;;;;;9.60;2.40;;;;;;;;;;5054125;28;20079;-76
2023/05/19 04:21:48;;;;;;;6.28;2.30;;;;;;;;;;5054686;28;20036;-78
2023/05/19 04:24:13;;;;;;;3.93;2.23;;;;;;;;;;5055809;28;20084;-78
2023/05/19 04:26:40;;;;;;;10.52;3.00;;;;;;;;;;5037900;28;20285;-79
2023/05/19 04:29:06;;;;;;;5.45;2.50;;;;;;;;;;5055712;28;20021;-79
2023/05/19 04:31:33;;;;;;;5.18;2.75;;;;;;;;;;5056893;28;20391;-78
2023/05/19 04:34:00;;;;;;;7.00;2.47;;;;;;;;;;5040168;28;20031;-78
2023/05/19 04:36:26;;;;;;;6.38;2.50;;;;;;;;;;5058794;28;20036;-79
2023/05/19 04:38:53;;;;;;;6.45;2.30;;;;;;;;;;5045586;28;20025;-78
2023/05/19 04:41:19;;;;;;;4.35;2.58;;;;;;;;;;5062845;28;20425;-79
2023/05/19 04:43:47;;;;;;;5.78;2.42;;;;;;;;;;5061551;28;20408;-79
2023/05/19 04:46:13;;;;;;;5.55;2.33;;;;;;;;;;5044685;28;20028;-79
2023/05/19 04:48:41;;;;;;;4.25;2.20;;;;;;;;;;5046807;28;20079;-78
2023/05/19 04:51:07;;;;;;;9.52;2.53;;;;;;;;;;5045630;28;20031;-80
2023/05/19 04:53:32;;;;;;;5.13;2.58;;;;;;;;;;5062577;28;20103;-78
2023/05/19 04:55:59;;;;;;;5.32;2.50;;;;;;;;;;5060368;28;20032;-79
2023/05/19 04:58:25;;;;;;;4.57;2.40;;;;;;;;;;5060414;28;20047;-80
2023/05/19 05:00:51;;;;;;;8.07;2.90;;;;;;;;;;5059309;28;20480;-78
2023/05/19 05:03:16;;;;;;;7.15;2.30;;;;;;;;;;5059350;28;20025;-78
2023/05/19 05:05:41;;;;;;;6.35;2.38;;;;;;;;;;5058797;28;20377;-78
2023/05/19 05:08:09;;;;;;;5.30;2.55;;;;;;;;;;5059351;28;20033;-80
2023/05/19 05:10:34;;;;;;;6.15;2.22;;;;;;;;;;5058519;28;20040;-80
2023/05/19 05:13:00;;;;;;;4.77;2.47;;;;;;;;;;5059521;28;20108;-79
2023/05/19 05:15:29;;;;;;;4.63;2.45;;;;;;;;;;5058396;28;20284;-80
2023/05/19 05:17:54;;;;;;;6.10;2.58;;;;;;;;;;5060554;28;20082;-80
2023/05/19 05:20:20;;;;;;;5.18;2.20;;;;;;;;;;5058767;28;20472;-78
2023/05/19 05:22:45;;;;;;;6.05;2.50;;;;;;;;;;5058722;28;20021;-78
2023/05/19 05:25:12;;;;;;;4.70;2.22;;;;;;;;;;5060243;28;20025;-78
2023/05/19 05:27:37;;;;;;;3.92;2.40;;;;;;;;;;5060791;28;20028;-79
2023/05/19 05:30:03;;;;;;;4.70;2.13;;;;;;;;;;5058637;28;20381;-79
2023/05/19 05:32:28;;;;;;;4.30;2.45;;;;;;;;;;5057601;28;20112;-77
2023/05/19 05:34:54;;;;;;;3.75;2.38;;;;;;;;;;5059179;28;20040;-79
2023/05/19 05:37:19;;;;;;;4.60;2.28;;;;;;;;;;5043263;28;20021;-80
2023/05/19 05:39:44;;;;;;;5.53;2.50;;;;;;;;;;5061785;28;20037;-78
2023/05/19 05:42:09;;;;;;;4.40;2.40;;;;;;;;;;5061358;28;20258;-80
2023/05/19 05:44:35;;;;;;;3.53;2.07;;;;;;;;;;5041512;28;20440;-77
2023/05/19 05:47:01;;;;;;;4.25;2.40;;;;;;;;;;5037458;28;20290;-77
2023/05/19 05:49:27;;;;;;;8.60;3.03;;;;;;;;;;5037297;28;20055;-78
2023/05/19 05:51:52;;;;;;;5.25;2.45;;;;;;;;;;5060142;28;20032;-77
2023/05/19 05:54:20;;;;;;;5.47;2.50;;;;;;;;;;5055705;28;20021;-76
2023/05/19 05:56:46;;;;;;;3.95;2.22;;;;;;;;;;5038426;28;20025;-76
2023/05/19 05:59:11;;;;;;;4.40;2.58;;;;;;;;;;5036937;28;20503;-76
2023/05/19 06:01:36;;;;;;;3.53;2.20;;;;;;;;;;5054729;28;20074;-76
2023/05/19 06:04:02;;;;;;;4.55;2.08;;;;;;;;;;5054531;28;20296;-76
2023/05/19 06:06:27;;;;;;;3.40;2.08;;;;;;;;;;5036643;28;20480;-76
2023/05/19 06:08:52;;;;;;;3.80;2.30;;;;;;;;;;5036518;28;20024;-76
2023/05/19 06:11:18;;;;;;;6.00;2.33;;;;;;;;;;5054757;28;20476;-76
2023/05/19 06:13:46;;;;;;;6.55;2.10;;;;;;;;;;5036569;28;20662;-76
2023/05/19 06:16:11;;;;;;;3.97;2.30;;;;;;;;;;5054438;28;20029;-77
2023/05/19 06:18:36;;;;;;;9.32;2.40;;;;;;;;;;5054702;28;20468;-77
2023/05/19 06:21:02;;;;;;;5.07;2.30;;;;;;;;;;5054425;28;20062;-77
2023/05/19 06:23:29;;;;;;;5.53;2.30;;;;;;;;;;5054186;28;20254;-77
2023/05/19 06:25:55;;;;;;;4.55;2.17;;;;;;;;;;5054338;28;20377;-77
2023/05/19 06:28:20;;;;;;;3.50;2.10;;;;;;;;;;5054381;28;20032;-76
2023/05/19 06:30:45;;;;;;;5.72;2.28;;;;;;;;;;5053901;28;20078;-76
2023/05/19 06:33:11;;;;;;;3.67;2.22;;;;;;;;;;5054152;28;20035;-76
2023/05/19 06:35:36;;;;;;;3.40;2.30;;;;;;;;;;5054186;28;20028;-76
2023/05/19 06:38:01;;;;;;;3.28;2.22;;;;;;;;;;5054682;28;20246;-77
2023/05/19 06:40:26;;;;;;;6.63;2.27;;;;;;;;;;5054987;28;20048;-77
2023/05/19 06:42:51;;;;;;;5.03;2.63;;;;;;;;;;5057417;28;20262;-77
2023/05/19 06:45:20;;;;;;;5.43;2.50;;;;;;;;;;5056841;28;20257;-77
2023/05/19 06:47:46;;;;;;;8.75;2.63;;;;;;;;;;5039966;28;20660;-77
2023/05/19 06:50:11;;;;;;;5.22;2.60;;;;;;;;;;5058840;28;20025;-78
2023/05/19 06:52:36;;;;;;;4.87;2.40;;;;;;;;;;5056860;28;20438;-77
2023/05/19 06:55:02;;;;;;;6.35;2.50;;;;;;;;;;5056441;28;20729;-77
2023/05/19 06:57:27;;;;;;;4.63;2.65;;;;;;;;;;5037767;28;20111;-78
2023/05/19 06:59:52;;;;;;;4.10;2.53;;;;;;;;;;5037904;28;20059;-78
2023/05/19 07:02:17;;;;;;;4.78;2.65;;;;;;;;;;5056833;28;20656;-79
2023/05/19 07:04:43;;;;;;;4.90;2.70;;;;;;;;;;5054673;28;20086;-76
2023/05/19 07:07:08;;;;;;;6.55;2.60;;;;;;;;;;5053808;28;20261;-76
2023/05/19 07:09:33;;;;;;;2.22;1.65;;;;;;;;;;5053418;28;20028;-76
2023/05/19 07:12:00;;;;;;;12.52;2.75;;;;;;;;;;5053601;28;20496;-75
2023/05/19 07:14:25;;;;;;;5.80;2.92;;;;;;;;;;5054424;28;20112;-76
2023/05/19 07:16:50;;;;;;;8.77;2.78;;;;;;;;;;5055101;28;20063;-76
2023/05/19 07:19:18;;;;;;;4.37;1.90;;;;;;;;;;5053872;28;20024;-76
2023/05/19 07:21:43;;;;;;;7.30;2.70;;;;;;;;;;5054503;28;20316;-76
2023/05/19 07:24:08;;;;;;;7.27;2.67;;;;;;;;;;5036749;28;20025;-77
2023/05/19 07:26:33;;;;;;;7.00;2.67;;;;;;;;;;5055545;28;20320;-77
2023/05/19 07:28:59;;;;;;;4.80;2.53;;;;;;;;;;5054603;28;20021;-77
2023/05/19 07:31:24;;;;;;;4.28;2.78;;;;;;;;;;5053644;28;20285;-77
2023/05/19 07:33:49;;;;;;;6.72;2.42;;;;;;;;;;5053595;28;20109;-76
2023/05/19 07:36:15;;;;;;;3.57;2.37;;;;;;;;;;5053387;28;20025;-76
2023/05/19 07:38:40;;;;;;;4.13;2.50;;;;;;;;;;5053264;28;20759;-77
2023/05/19 07:41:05;;;;;;;4.13;2.40;;;;;;;;;;5053307;28;20063;-75
2023/05/19 07:43:31;;;;;;;4.93;2.40;;;;;;;;;;5053237;28;20104;-76
2023/05/19 07:45:56;;;;;;;5.90;2.17;;;;;;;;;;5052890;28;20029;-76
2023/05/19 07:48:24;;;;;;;7.10;2.03;;;;;;;;;;5035038;28;20032;-76
2023/05/19 07:50:50;;;;;;;6.57;2.10;;;;;;;;;;5055129;28;20404;-79
2023/05/19 07:53:16;;;;;;;4.85;2.22;;;;;;;;;;5054707;28;20035;-77
2023/05/19 07:55:41;;;;;;;6.72;2.00;;;;;;;;;;5036009;28;20451;-77
2023/05/19 07:58:06;;;;;;;4.80;1.93;;;;;;;;;;5054816;28;20472;-76
2023/05/19 08:00:31;;;;;;;5.00;1.88;;;;;;;;;;5053128;28;20799;-76
2023/05/19 08:02:57;;;;;;;2.10;1.30;;;;;;;;;;5053325;28;20029;-78
2023/05/19 08:05:22;;;;;;;3.85;1.98;;;;;;;;;;5054420;28;20159;-78
2023/05/19 08:07:48;;;;;;;3.75;1.98;;;;;;;;;;5054692;28;20104;-78
2023/05/19 08:10:13;;;;;;;1.63;1.33;;;;;;;;;;5036552;28;20024;-78
2023/05/19 08:12:39;;;;;;;5.80;1.70;;;;;;;;;;5052672;28;20364;-76
2023/05/19 08:15:04;;;;;;;2.65;1.63;;;;;;;;;;5035475;28;20051;-77
2023/05/19 08:17:30;;;;;;;3.30;2.30;;;;;;;;;;5054092;28;20017;-77
2023/05/19 08:19:55;;;;;;;4.47;1.90;;;;;;;;;;5052679;28;20029;-77
2023/05/19 08:22:20;;;;;;;5.38;2.20;;;;;;;;;;5056237;28;20477;-77
2023/05/19 08:24:48;;;;;;;9.25;2.30;;;;;;;;;;5057412;28;20027;-77
2023/05/19 08:27:13;;;;;;;4.40;2.63;;;;;;;;;;5057352;28;20400;-77
2023/05/19 08:29:38;;;;;;;10.00;2.20;;;;;;;;;;5057023;28;20028;-77
2023/05/19 08:32:04;;;;;;;3.70;1.70;;;;;;;;;;5039194;28;20484;-77
2023/05/19 08:34:29;;;;;;;5.47;2.25;;;;;;;;;;5056780;28;20662;-77
2023/05/19 08:36:56;;;;;;;5.18;1.80;;;;;;;;;;5055866;28;20048;-77
2023/05/19 08:39:25;;;;;;;4.22;2.17;;;;;;;;;;5056373;28;20024;-74
2023/05/19 08:41:54;;;;;;;7.07;1.80;;;;;;;;;;5056683;28;20025;-77
2023/05/19 08:44:19;;;;;;;3.97;1.80;;;;;;;;;;5058050;28;20051;-78
2023/05/19 08:46:48;;;;;;;4.43;2.40;;;;;;;;;;5039026;28;20029;-76
2023/05/19 08:49:17;;;;;;;7.22;2.13;;;;;;;;;;5040481;28;20028;-78
2023/05/19 08:51:53;;;;;;;3.15;2.15;;;;;;;;;;5039643;28;20024;-76
2023/05/19 08:54:24;;;;;;;7.43;2.72;;;;;;;;;;5056462;28;20025;-77
2023/05/19 08:56:49;;;;;;;7.53;2.65;;;;;;;;;;5060086;28;20108;-76
2023/05/19 08:59:16;;;;;;;5.05;2.50;;;;;;;;;;5057757;28;20456;-75
2023/05/19 09:01:44;;;;;;;5.30;2.53;;;;;;;;;;5057476;28;20065;-75
2023/05/19 09:04:10;;;;;;;4.97;2.53;;;;;;;;;;5055857;28;20083;-76
2023/05/19 09:06:35;;;;;;;4.97;2.58;;;;;;;;;;5056368;28;20033;-77
2023/05/19 09:09:02;;;;;;;4.80;2.80;;;;;;;;;;5038161;28;20025;-76
2023/05/19 09:11:28;;;;;;;4.50;2.40;;;;;;;;;;5055283;28;20272;-74
2023/05/19 09:13:54;;;;;;;5.20;2.60;;;;;;;;;;5043274;28;20032;-82
2023/05/19 09:16:20;;;;;;;4.10;2.20;;;;;;;;;;5041685;28;20024;-78
2023/05/19 09:18:56;;;;;;;2.58;1.70;;;;;;;;;;5057230;28;20028;-77
2023/05/19 09:21:31;;;;;;;5.00;2.20;;;;;;;;;;5057855;28;20396;-78
2023/05/19 09:24:02;;;;;;;6.00;1.92;;;;;;;;;;5039025;28;20021;-78
2023/05/19 09:26:36;;;;;;;5.38;2.58;;;;;;;;;;5057814;28;20055;-79
2023/05/19 09:29:02;;;;;;;6.18;2.38;;;;;;;;;;5061729;28;20074;-81
2023/05/19 09:31:30;;;;;;;2.50;1.38;;;;;;;;;;5037913;28;20033;-76
2023/05/19 09:33:56;;;;;;;4.60;1.90;;;;;;;;;;5054689;28;20025;-77
2023/05/19 09:36:21;;;;;;;3.28;2.03;;;;;;;;;;5054571;28;20033;-76
2023/05/19 09:38:47;;;;;;;6.97;2.57;;;;;;;;;;5055378;28;20028;-77
2023/05/19 09:41:13;;;;;;;4.20;1.90;;;;;;;;;;5037948;28;20265;-78
2023/05/19 09:43:38;;;;;;;4.25;2.03;;;;;;;;;;5055398;28;20179;-77
2023/05/19 09:46:10;;;;;;;9.23;2.10;;;;;;;;;;5037399;28;20124;-77
2023/05/19 09:48:38;;;;;;;3.55;2.10;;;;;;;;;;5037995;28;20288;-77
2023/05/19 09:51:06;;;;;;;2.97;1.63;;;;;;;;;;5057231;28;20395;-78
2023/05/19 09:53:33;;;;;;;4.72;2.25;;;;;;;;;;5055073;28;20108;-76
2023/05/19 09:56:00;;;;;;;4.75;1.80;;;;;;;;;;5056680;28;20028;-77
2023/05/19 09:58:30;;;;;;;4.28;1.77;;;;;;;;;;5056190;28;20438;-76
2023/05/19 10:00:55;;;;;;;16.17;2.30;;;;;;;;;;5055235;28;20040;-77
2023/05/19 10:03:22;;;;;;;4.53;2.10;;;;;;;;;;5036547;28;20027;-77
2023/05/19 10:05:49;;;;;;;2.97;1.60;;;;;;;;;;5056442;28;20025;-78
2023/05/19 10:08:16;;;;;;;3.92;2.10;;;;;;;;;;5057764;28;20475;-76
2023/05/19 10:10:44;;;;;;;3.05;1.98;;;;;;;;;;5038505;28;20500;-77
2023/05/19 10:13:11;;;;;;;3.47;2.20;;;;;;;;;;5055267;28;20024;-77
2023/05/19 10:15:36;;;;;;;5.57;2.13;;;;;;;;;;5055056;28;20020;-76
2023/05/19 10:18:02;;;;;;;3.17;1.98;;;;;;;;;;5037796;28;20017;-77
2023/05/19 10:20:28;;;;;;;3.15;1.90;;;;;;;;;;5037516;28;20388;-77
2023/05/19 10:22:53;;;;;;;5.85;2.25;;;;;;;;;;5054585;28;20100;-77
2023/05/19 10:25:18;;;;;;;3.07;1.37;;;;;;;;;;5054783;28;20542;-77
2023/05/19 10:27:58;;;;;;;5.07;2.28;;;;;;;;;;5054563;28;20273;-77
2023/05/19 10:30:45;;;;;;;2.95;1.50;;;;;;;;;;5037889;28;20044;-78
2023/05/19 10:33:14;;;;;;;4.68;1.85;;;;;;;;;;5056526;28;20068;-77
2023/05/19 10:36:12;;;;;;;3.25;1.58;;;;;;;;;;5055724;28;20032;-78
2023/05/19 10:38:51;;;;;;;3.47;1.92;;;;;;;;;;5054442;28;20032;-78
2023/05/19 10:41:51;;;;;;;3.67;1.90;;;;;;;;;;5036689;28;20032;-77
2023/05/19 10:44:50;;;;;;;3.67;2.08;;;;;;;;;;5054367;28;20021;-77
2023/05/19 10:47:22;;;;;;;2.00;1.20;;;;;;;;;;5054687;28;20039;-78
2023/05/19 10:49:47;;;;;;;7.97;1.60;;;;;;;;;;5056866;28;20031;-78
2023/05/19 10:52:20;;;;;;;3.20;1.90;;;;;;;;;;5056207;28;20025;-77
2023/05/19 10:54:46;;;;;;;10.85;2.03;;;;;;;;;;5054937;28;20262;-77
2023/05/19 10:57:15;;;;;;;2.78;1.40;;;;;;;;;;5056179;28;20021;-77
2023/05/19 10:59:43;;;;;;;4.03;1.70;;;;;;;;;;5037556;28;20048;-77
2023/05/19 11:02:09;;;;;;;2.95;1.83;;;;;;;;;;5057241;28;20035;-79
2023/05/19 11:04:49;;;;;;;2.88;1.67;;;;;;;;;;5055312;28;20025;-77
2023/05/19 11:07:20;;;;;;;4.65;2.05;;;;;;;;;;5037693;28;20021;-78
2023/05/19 11:09:52;;;;;;;6.57;2.03;;;;;;;;;;5036979;28;20029;-77
2023/05/19 11:12:23;;;;;;;3.63;1.85;;;;;;;;;;5056240;28;20032;-77
2023/05/19 11:14:53;;;;;;;6.28;2.20;;;;;;;;;;5056754;28;20041;-77
2023/05/19 11:17:20;;;;;;;10.43;1.98;;;;;;;;;;5059440;28;20109;-78
2023/05/19 11:19:53;;;;;;;8.02;1.63;;;;;;;;;;5056054;28;20412;-78
2023/05/19 11:22:24;;;;;;;3.15;1.70;;;;;;;;;;5058011;28;20033;-77
2023/05/19 11:24:51;;;;;;;7.15;1.80;;;;;;;;;;5054291;28;20492;-78
2023/05/19 11:27:33;;;;;;;4.78;1.80;;;;;;;;;;5038971;28;20055;-78
2023/05/19 11:30:10;;;;;;;4.07;2.00;;;;;;;;;;5056521;28;20021;-77
2023/05/19 11:32:40;;;;;;;8.25;1.42;;;;;;;;;;5056436;28;20029;-77
2023/05/19 11:35:06;;;;;;;3.72;1.65;;;;;;;;;;5056318;28;20436;-77
2023/05/19 11:37:33;;;;;;;2.83;1.58;;;;;;;;;;5055230;28;20025;-77
2023/05/19 11:40:01;;;;;;;2.28;1.60;;;;;;;;;;5057048;28;20021;-78
2023/05/19 11:42:26;;;;;;;2.92;1.70;;;;;;;;;;5057708;28;20074;-77
2023/05/19 11:44:54;;;;;;;5.67;2.00;;;;;;;;;;5056624;28;20116;-77
2023/05/19 11:47:20;;;;;;;2.50;1.58;;;;;;;;;;5054646;28;20254;-77
2023/05/19 11:49:53;;;;;;;4.20;2.13;;;;;;;;;;5053067;28;20515;-76
2023/05/19 11:52:21;;;;;;;3.47;1.95;;;;;;;;;;5053768;28;20151;-77
2023/05/19 11:54:47;;;;;;;6.40;2.00;;;;;;;;;;5052705;28;20033;-77
2023/05/19 11:57:12;;;;;;;4.30;2.08;;;;;;;;;;5053434;28;20036;-77
2023/05/19 11:59:42;;;;;;;3.38;1.67;;;;;;;;;;5036119;28;20025;-77
2023/05/19 12:02:23;;;;;;;3.22;2.05;;;;;;;;;;5054029;28;20021;-77
2023/05/19 12:04:49;;;;;;;4.32;1.73;;;;;;;;;;5055958;28;20047;-77
2023/05/19 12:07:18;;;;;;;4.43;1.80;;;;;;;;;;5037425;28;20017;-77
2023/05/19 12:09:45;;;;;;;4.22;2.35;;;;;;;;;;5054231;28;20051;-77
2023/05/19 12:12:18;;;;;;;3.10;2.03;;;;;;;;;;5053321;28;20400;-77
2023/05/19 12:14:49;;;;;;;2.45;1.63;;;;;;;;;;5053663;28;20033;-77
2023/05/19 12:17:16;;;;;;;2.85;1.60;;;;;;;;;;5052849;28;20554;-76
2023/05/19 12:19:47;;;;;;;4.88;2.03;;;;;;;;;;5053420;28;20032;-75
2023/05/19 12:22:14;;;;;;;6.20;2.20;;;;;;;;;;5053146;28;20025;-77
2023/05/19 12:24:40;;;;;;;2.95;2.10;;;;;;;;;;5052967;28;20029;-77
2023/05/19 12:27:19;;;;;;;6.13;2.00;;;;;;;;;;5053030;28;20021;-77
2023/05/19 12:29:51;;;;;;;6.50;2.42;;;;;;;;;;5053196;28;20031;-79
2023/05/19 12:32:17;;;;;;;3.30;1.80;;;;;;;;;;5036385;28;20025;-78
2023/05/19 12:34:42;;;;;;;3.20;1.83;;;;;;;;;;5054362;28;20105;-77
2023/05/19 12:37:09;;;;;;;3.10;2.22;;;;;;;;;;5053515;28;20029;-77
2023/05/19 12:39:34;;;;;;;3.10;1.98;;;;;;;;;;5034959;28;20488;-78
2023/05/19 12:42:01;;;;;;;3.42;1.75;;;;;;;;;;5052983;28;20028;-77
2023/05/19 12:44:27;;;;;;;2.75;1.70;;;;;;;;;;5053747;28;20104;-77
2023/05/19 12:46:52;;;;;;;6.10;2.50;;;;;;;;;;5053028;28;20053;-76
2023/05/19 12:49:17;;;;;;;4.57;1.63;;;;;;;;;;5052497;28;20274;-76
2023/05/19 12:51:50;;;;;;;3.58;2.03;;;;;;;;;;5034498;28;20299;-76
2023/05/19 12:54:20;;;;;;;11.02;2.75;;;;;;;;;;5052460;28;20444;-77
2023/05/19 12:56:50;;;;;;;3.40;2.20;;;;;;;;;;5037188;28;20033;-76
2023/05/19 12:59:25;;;;;;;6.07;2.50;;;;;;;;;;5053566;28;20112;-77
2023/05/19 13:01:57;;;;;;;7.50;2.22;;;;;;;;;;5052280;28;20078;-77
2023/05/19 13:04:24;;;;;;;4.80;2.20;;;;;;;;;;5052349;28;20067;-77
2023/05/19 13:06:49;;;;;;;3.70;1.70;;;;;;;;;;5054438;28;20025;-77
2023/05/19 13:09:16;;;;;;;4.88;2.33;;;;;;;;;;5056836;28;20082;-77
2023/05/19 13:11:42;;;;;;;3.25;2.67;;;;;;;;;;5056744;28;20036;-77
2023/05/19 13:14:08;;;;;;;5.38;2.60;;;;;;;;;;5056541;28;20029;-77
2023/05/19 13:16:33;;;;;;;4.90;2.90;;;;;;;;;;5057172;28;20048;-77
2023/05/19 13:18:59;;;;;;;3.13;2.00;;;;;;;;;;5056744;28;20013;-77
2023/05/19 13:21:25;;;;;;;4.75;2.50;;;;;;;;;;5038467;28;20352;-77
2023/05/19 13:23:50;;;;;;;3.45;2.13;;;;;;;;;;5056455;28;20068;-77
2023/05/19 13:26:15;;;;;;;5.40;2.40;;;;;;;;;;5055734;28;20052;-77
2023/05/19 13:28:41;;;;;;;3.70;2.15;;;;;;;;;;5037808;28;20316;-77
2023/05/19 13:31:06;;;;;;;5.17;2.90;;;;;;;;;;5037678;28;20036;-77
2023/05/19 13:33:31;;;;;;;5.73;2.70;;;;;;;;;;5038498;28;20266;-77
2023/05/19 13:35:56;;;;;;;4.90;2.53;;;;;;;;;;5055452;28;20269;-76
2023/05/19 13:38:21;;;;;;;4.50;2.80;;;;;;;;;;5037598;28;20270;-77
2023/05/19 13:40:47;;;;;;;8.33;2.10;;;;;;;;;;5038380;28;20262;-77
2023/05/19 13:43:12;;;;;;;4.77;3.00;;;;;;;;;;5056821;28;20269;-76
2023/05/19 13:45:38;;;;;;;6.17;2.97;;;;;;;;;;5055216;28;20249;-77
2023/05/19 13:48:05;;;;;;;6.03;2.50;;;;;;;;;;5037653;28;20360;-77
2023/05/19 13:50:31;;;;;;;5.82;2.55;;;;;;;;;;5037737;28;20020;-78
2023/05/19 13:52:56;;;;;;;4.22;2.70;;;;;;;;;;5055601;28;20025;-77
2023/05/19 13:55:22;;;;;;;4.87;3.03;;;;;;;;;;5055017;28;20534;-77
2023/05/19 13:57:48;;;;;;;6.00;3.05;;;;;;;;;;5055316;28;20603;-77
2023/05/19 14:00:13;;;;;;;9.45;3.03;;;;;;;;;;5055513;28;20029;-77
2023/05/19 14:02:39;;;;;;;4.95;2.78;;;;;;;;;;5055353;28;20071;-77
2023/05/19 14:05:05;;;;;;;6.22;2.85;;;;;;;;;;5037426;28;20040;-77
2023/05/19 14:07:33;;;;;;;5.13;2.83;;;;;;;;;;5054636;28;20036;-77
2023/05/19 14:09:58;;;;;;;4.80;2.58;;;;;;;;;;5036758;28;20034;-77
2023/05/19 14:12:25;;;;;;;4.88;3.35;;;;;;;;;;5054686;28;20393;-77
2023/05/19 14:14:50;;;;;;;6.25;2.88;;;;;;;;;;5036989;28;20115;-77
2023/05/19 14:17:18;;;;;;;3.70;2.38;;;;;;;;;;5055323;28;20083;-78
2023/05/19 14:19:43;;;;;;;5.32;3.10;;;;;;;;;;5053794;28;20024;-77
2023/05/19 14:22:08;;;;;;;4.93;2.73;;;;;;;;;;5054846;28;20487;-77
2023/05/19 14:24:34;;;;;;;5.88;3.85;;;;;;;;;;5055431;28;20689;-77
2023/05/19 14:26:59;;;;;;;5.13;3.33;;;;;;;;;;5054953;28;20021;-77
2023/05/19 14:29:24;;;;;;;6.72;4.05;;;;;;;;;;5036755;28;20972;-77
2023/05/19 14:31:49;;;;;;;9.98;3.35;;;;;;;;;;5054444;28;20495;-77
2023/05/19 14:34:16;;;;;;;3.47;2.43;;;;;;;;;;5055060;28;20033;-77
2023/05/19 14:36:42;;;;;;;5.50;3.35;;;;;;;;;;5054747;28;20357;-77
2023/05/19 14:39:08;;;;;;;6.22;3.90;;;;;;;;;;5036799;28;20159;-77
2023/05/19 14:41:33;;;;;;;6.18;3.33;;;;;;;;;;5054097;28;20021;-77
2023/05/19 14:43:58;;;;;;;7.90;3.33;;;;;;;;;;5054250;28;20480;-77